createdAt,value
2022-12-07T00:01:59.316Z,99.00
2022-12-07T00:04:27.776Z,103.72
2022-12-07T00:06:56.379Z,107.60
2022-12-07T00:09:25.048Z,130.27
2022-12-07T00:11:53.927Z,117.13
2022-12-07T00:14:23.058Z,117.93
2022-12-07T00:16:52.568Z,141.77
2022-12-07T00:19:22.786Z,146.98
2022-12-07T00:21:51.442Z,139.43
2022-12-07T00:24:20.132Z,125.60
2022-12-07T00:26:48.880Z,161.43
2022-12-07T00:29:19.256Z,161.82
2022-12-07T00:31:47.787Z,114.32
2022-12-07T00:34:18.256Z,128.55
2022-12-07T00:36:48.432Z,128.93
2022-12-07T00:39:17.452Z,132.07
2022-12-07T00:41:46.160Z,128.60
2022-12-07T00:44:14.914Z,125.47
2022-12-07T00:46:43.493Z,111.32
2022-12-07T00:49:12.097Z,135.18
2022-12-07T00:51:40.712Z,143.50
2022-12-07T00:54:11.071Z,144.32
2022-12-07T00:56:40.045Z,123.57
2022-12-07T00:59:09.179Z,112.90
2022-12-07T01:01:38.907Z,103.00
2022-12-07T01:04:07.712Z,100.80
2022-12-07T01:06:36.367Z,106.47
2022-12-07T01:09:07.221Z,99.78
2022-12-07T01:11:37.213Z,78.22
2022-12-07T01:14:06.017Z,78.60
2022-12-07T01:16:35.410Z,69.05
2022-12-07T01:19:05.806Z,66.95
2022-12-07T01:21:38.440Z,59.03
2022-12-07T01:24:09.134Z,59.33
2022-12-07T01:26:39.691Z,57.03
2022-12-07T01:29:08.309Z,48.88
2022-12-07T01:31:36.760Z,43.13
2022-12-07T01:34:05.464Z,41.00
2022-12-07T01:36:36.417Z,33.00
2022-12-07T01:39:07.490Z,31.08
2022-12-07T01:41:41.376Z,35.13
2022-12-07T01:44:14.522Z,34.83
2022-12-07T01:46:43.672Z,27.73
2022-12-07T01:49:17.309Z,30.58
2022-12-07T01:51:46.396Z,29.88
2022-12-07T01:54:17.120Z,30.08
2022-12-07T01:56:51.449Z,36.60
2022-12-07T01:59:21.461Z,30.95
2022-12-07T02:01:49.693Z,36.35
2022-12-07T02:04:18.371Z,40.00
2022-12-07T02:06:47.690Z,36.72
2022-12-07T02:09:16.543Z,36.58
2022-12-07T02:11:46.733Z,43.47
2022-12-07T02:14:15.519Z,38.53
2022-12-07T02:16:51.069Z,34.97
2022-12-07T02:19:59.078Z,31.20
2022-12-07T02:22:56.705Z,33.45
2022-12-07T02:25:32.957Z,34.15
2022-12-07T02:28:06.468Z,36.85
2022-12-07T02:30:38.371Z,30.77
2022-12-07T02:33:08.904Z,27.88
2022-12-07T02:35:41.996Z,27.02
2022-12-07T02:38:16.401Z,28.20
2022-12-07T02:40:47.703Z,31.73
2022-12-07T02:43:19.656Z,27.20
2022-12-07T02:45:50.528Z,31.15
2022-12-07T02:48:19.868Z,28.75
2022-12-07T02:50:51.190Z,26.83
2022-12-07T02:53:34.256Z,28.38
2022-12-07T02:56:05.892Z,26.58
2022-12-07T02:58:41.840Z,24.60
2022-12-07T03:01:18.822Z,27.60
2022-12-07T03:03:51.473Z,27.85
2022-12-07T03:06:24.681Z,22.77
2022-12-07T03:09:00.306Z,26.85
2022-12-07T03:11:33.002Z,19.67
2022-12-07T03:14:05.659Z,25.10
2022-12-07T03:16:38.024Z,25.38
2022-12-07T03:19:10.978Z,17.90
2022-12-07T03:21:42.129Z,17.92
2022-12-07T03:24:12.673Z,18.75
2022-12-07T03:26:44.423Z,16.85
2022-12-07T03:29:16.053Z,15.20
2022-12-07T03:31:48.531Z,15.32
2022-12-07T03:34:20.635Z,13.18
2022-12-07T03:36:52.765Z,16.98
2022-12-07T03:39:25.519Z,14.50
2022-12-07T03:41:54.534Z,14.88
2022-12-07T03:44:23.463Z,14.13
2022-12-07T03:46:59.434Z,15.57
2022-12-07T03:49:30.624Z,15.27
2022-12-07T03:52:04.702Z,16.75
2022-12-07T03:54:36.081Z,17.38
2022-12-07T03:57:05.390Z,18.83
2022-12-07T03:59:34.247Z,20.48
2022-12-07T04:02:08.069Z,20.25
2022-12-07T04:04:37.043Z,19.23
2022-12-07T04:07:05.885Z,22.08
2022-12-07T04:09:34.614Z,24.48
2022-12-07T04:12:03.408Z,24.88
2022-12-07T04:14:32.137Z,24.05
2022-12-07T04:17:01.434Z,26.05
2022-12-07T04:19:33.729Z,23.65
2022-12-07T04:22:03.725Z,20.35
2022-12-07T04:24:32.596Z,20.40
2022-12-07T04:27:01.481Z,24.58
2022-12-07T04:29:30.347Z,24.35
2022-12-07T04:31:59.024Z,23.90
2022-12-07T04:34:27.296Z,22.88
2022-12-07T04:36:57.456Z,23.05
2022-12-07T04:39:28.311Z,18.10
2022-12-07T04:41:57.754Z,24.15
2022-12-07T04:44:27.207Z,24.83
2022-12-07T04:46:56.214Z,21.10
2022-12-07T04:49:26.266Z,23.10
2022-12-07T04:51:55.056Z,21.33
2022-12-07T04:54:25.447Z,18.35
2022-12-07T04:56:54.259Z,20.67
2022-12-07T04:59:22.964Z,21.25
2022-12-07T05:01:51.396Z,18.42
2022-12-07T05:04:20.281Z,16.80
2022-12-07T05:06:49.241Z,20.27
2022-12-07T05:09:18.066Z,18.20
2022-12-07T05:11:48.297Z,23.23
2022-12-07T05:16:48.647Z,20.88
2022-12-07T05:19:17.868Z,16.63
2022-12-07T05:21:46.819Z,19.00
2022-12-07T05:24:17.290Z,16.92
2022-12-07T05:26:48.646Z,16.95
2022-12-07T05:29:18.944Z,20.85
2022-12-07T05:31:47.601Z,21.60
2022-12-07T05:34:16.325Z,18.25
2022-12-07T05:36:44.986Z,22.45
2022-12-07T05:39:13.733Z,20.90
2022-12-07T05:42:00.132Z,20.73
2022-12-07T05:44:30.387Z,20.80
2022-12-07T05:49:27.145Z,20.20
2022-12-07T05:51:55.946Z,19.73
2022-12-07T05:54:24.936Z,19.60
2022-12-07T05:56:53.706Z,21.83
2022-12-07T05:59:24.258Z,19.27
2022-12-07T06:06:51.901Z,22.30
2022-12-07T06:09:21.003Z,21.27
2022-12-07T06:12:07.218Z,19.38
2022-12-07T06:14:36.397Z,21.38
2022-12-07T06:17:06.617Z,20.73
2022-12-07T06:19:36.319Z,21.48
2022-12-07T06:22:05.804Z,24.23
2022-12-07T06:24:34.954Z,22.52
2022-12-07T06:27:03.737Z,23.73
2022-12-07T06:29:32.545Z,21.73
2022-12-07T06:32:01.518Z,24.92
2022-12-07T06:34:31.308Z,29.67
2022-12-07T06:37:00.102Z,26.95
2022-12-07T06:39:30.372Z,26.23
2022-12-07T06:44:28.057Z,28.02
2022-12-07T06:47:18.878Z,28.55
2022-12-07T06:49:47.761Z,24.00
2022-12-07T06:52:16.455Z,26.13
2022-12-07T06:54:46.107Z,25.23
2022-12-07T06:57:14.763Z,23.75
2022-12-07T06:59:43.499Z,24.20
2022-12-07T07:02:12.494Z,27.23
2022-12-07T07:04:41.085Z,26.20
2022-12-07T07:07:11.305Z,24.63
2022-12-07T07:12:08.515Z,24.17
2022-12-07T07:14:37.612Z,27.80
2022-12-07T07:17:06.363Z,30.20
2022-12-07T07:19:34.779Z,30.48
2022-12-07T07:22:04.206Z,28.02
2022-12-07T07:24:34.433Z,36.57
2022-12-07T07:27:03.321Z,35.88
2022-12-07T07:29:32.177Z,34.80
2022-12-07T07:32:06.596Z,42.10
2022-12-07T07:34:35.838Z,41.00
2022-12-07T07:37:04.571Z,40.17
2022-12-07T07:39:34.964Z,36.13
2022-12-07T07:42:03.667Z,35.08
2022-12-07T07:44:35.688Z,31.63
2022-12-07T07:47:04.845Z,36.00
2022-12-07T07:49:33.268Z,32.63
2022-12-07T07:52:02.081Z,31.27
2022-12-07T07:54:30.907Z,29.42
2022-12-07T07:57:01.065Z,31.05
2022-12-07T07:59:30.399Z,35.90
2022-12-07T08:01:59.230Z,25.40
2022-12-07T08:04:27.840Z,36.80
2022-12-07T08:06:56.701Z,39.47
2022-12-07T08:09:25.386Z,34.35
2022-12-07T08:11:54.554Z,33.03
2022-12-07T08:14:24.713Z,40.03
2022-12-07T08:16:53.088Z,41.05
2022-12-07T08:19:21.957Z,37.42
2022-12-07T08:21:50.780Z,47.72
2022-12-07T08:24:19.599Z,41.65
2022-12-07T08:26:48.260Z,45.13
2022-12-07T08:29:16.943Z,45.40
2022-12-07T08:31:46.773Z,44.38
2022-12-07T08:34:16.065Z,43.17
2022-12-07T08:36:44.780Z,44.25
2022-12-07T08:42:02.154Z,34.47
2022-12-07T08:44:30.761Z,45.80
2022-12-07T08:47:02.558Z,40.78
2022-12-07T08:49:35.315Z,40.40
2022-12-07T08:52:05.022Z,34.33
2022-12-07T08:54:36.405Z,35.85
2022-12-07T08:57:05.577Z,30.83
2022-12-07T08:59:35.783Z,31.23
2022-12-07T09:04:34.838Z,28.30
2022-12-07T09:07:03.960Z,31.70
2022-12-07T09:09:32.858Z,31.38
2022-12-07T09:12:01.677Z,29.98
2022-12-07T09:14:30.488Z,33.13
2022-12-07T09:17:09.335Z,29.42
2022-12-07T09:19:37.882Z,34.67
2022-12-07T09:22:07.383Z,34.85
2022-12-07T09:24:36.483Z,34.10
2022-12-07T09:27:05.513Z,32.33
2022-12-07T09:29:34.727Z,33.97
2022-12-07T09:32:08.396Z,37.45
2022-12-07T09:34:41.623Z,32.53
2022-12-07T09:37:10.862Z,32.92
2022-12-07T09:39:46.152Z,32.97
2022-12-07T09:42:29.431Z,28.60
2022-12-07T09:44:59.656Z,29.02
2022-12-07T09:50:06.612Z,25.85
2022-12-07T09:52:38.682Z,30.05
2022-12-07T09:55:13.859Z,35.72
2022-12-07T09:57:43.953Z,29.52
2022-12-07T10:02:45.893Z,29.67
2022-12-07T10:05:24.113Z,29.48
2022-12-07T10:07:54.042Z,27.80
2022-12-07T10:10:27.659Z,23.00
2022-12-07T10:12:59.488Z,29.10
2022-12-07T10:15:43.811Z,29.63
2022-12-07T10:18:37.853Z,24.90
2022-12-07T10:21:14.232Z,24.77
2022-12-07T10:23:44.188Z,24.00
2022-12-07T10:26:24.133Z,23.85
2022-12-07T10:28:52.564Z,24.47
2022-12-07T10:31:22.261Z,26.85
2022-12-07T10:33:52.819Z,24.58
2022-12-07T10:36:26.114Z,24.60
2022-12-07T10:39:01.663Z,19.80
2022-12-07T10:41:30.496Z,22.85
2022-12-07T10:44:00.344Z,28.98
2022-12-07T10:47:02.391Z,24.25
2022-12-07T10:49:56.056Z,22.33
2022-12-07T10:52:46.294Z,21.23
2022-12-07T10:55:23.418Z,21.17
2022-12-07T10:58:08.626Z,26.23
2022-12-07T11:00:40.218Z,21.58
2022-12-07T11:03:33.448Z,24.20
2022-12-07T11:06:13.270Z,23.67
2022-12-07T11:08:49.976Z,21.17
2022-12-07T11:11:23.779Z,24.50
2022-12-07T11:13:59.045Z,24.92
2022-12-07T11:16:38.075Z,26.17
2022-12-07T11:19:28.030Z,23.83
2022-12-07T11:27:08.715Z,23.08
2022-12-07T11:29:52.177Z,23.00
2022-12-07T11:32:24.926Z,23.70
2022-12-07T11:35:01.663Z,29.35
2022-12-07T11:37:38.304Z,23.23
2022-12-07T11:40:18.742Z,23.48
2022-12-07T11:42:50.711Z,23.42
2022-12-07T11:45:23.174Z,23.95
2022-12-07T11:47:56.793Z,24.85
2022-12-07T11:50:33.391Z,24.88
2022-12-07T11:53:04.015Z,24.30
2022-12-07T11:55:43.016Z,25.60
2022-12-07T11:58:23.837Z,25.60
2022-12-07T12:00:54.646Z,23.70
2022-12-07T12:03:31.365Z,24.50
2022-12-07T12:06:00.213Z,25.15
2022-12-07T12:11:33.014Z,27.95
2022-12-07T12:17:12.110Z,18.65
2022-12-07T12:19:43.719Z,21.17
2022-12-07T12:22:16.821Z,22.33
2022-12-07T12:24:46.452Z,23.92
2022-12-07T12:27:23.897Z,26.00
2022-12-07T12:29:56.025Z,27.33
2022-12-07T12:32:26.589Z,25.67
2022-12-07T12:37:45.394Z,24.30
2022-12-07T12:40:53.627Z,18.23
2022-12-07T12:43:55.442Z,27.55
2022-12-07T12:46:51.668Z,24.58
2022-12-07T12:50:07.544Z,23.63
2022-12-07T12:52:55.386Z,21.80
2022-12-07T12:56:08.941Z,23.88
2022-12-07T12:58:46.958Z,22.13
2022-12-07T13:01:42.225Z,20.98
2022-12-07T13:04:53.928Z,17.88
2022-12-07T13:07:55.384Z,18.88
2022-12-07T13:10:46.860Z,19.33
2022-12-07T13:13:33.136Z,18.25
2022-12-07T13:16:35.115Z,17.52
2022-12-07T13:19:05.299Z,13.63
2022-12-07T13:21:44.542Z,32.60
2022-12-07T13:24:14.880Z,18.83
2022-12-07T13:26:45.154Z,16.40
2022-12-07T13:31:43.752Z,23.63
2022-12-07T13:34:33.904Z,16.23
2022-12-07T13:37:04.398Z,19.90
2022-12-07T13:39:36.052Z,21.02
2022-12-07T13:42:15.772Z,22.20
2022-12-07T13:44:44.425Z,18.65
2022-12-07T13:47:17.367Z,18.45
2022-12-07T13:49:53.933Z,23.38
2022-12-07T13:52:24.980Z,19.95
2022-12-07T13:54:59.092Z,22.58
2022-12-07T13:57:29.170Z,21.17
2022-12-07T13:59:58.551Z,20.00
2022-12-07T14:02:34.354Z,20.60
2022-12-07T14:05:12.973Z,19.60
2022-12-07T14:07:52.166Z,20.67
2022-12-07T14:10:28.189Z,20.10
2022-12-07T14:12:57.611Z,18.33
2022-12-07T14:15:29.504Z,21.52
2022-12-07T14:17:59.072Z,22.38
2022-12-07T14:20:34.743Z,24.20
2022-12-07T14:23:10.263Z,24.10
2022-12-07T14:25:51.108Z,22.45
2022-12-07T14:28:29.322Z,20.00
2022-12-07T14:30:58.145Z,22.70
2022-12-07T14:33:27.773Z,26.98
2022-12-07T14:36:00.265Z,30.02
2022-12-07T14:38:29.250Z,26.80
2022-12-07T14:41:19.327Z,26.25
2022-12-07T14:44:07.147Z,26.85
2022-12-07T14:46:36.747Z,23.40
2022-12-07T14:57:14.024Z,25.52
2022-12-07T14:59:45.200Z,27.98
2022-12-07T15:02:16.531Z,27.65
2022-12-07T15:04:45.036Z,17.83
2022-12-07T15:07:20.076Z,29.85
2022-12-07T15:09:48.929Z,16.83
2022-12-07T15:12:17.795Z,19.23
2022-12-07T15:14:46.482Z,24.42
2022-12-07T15:17:27.747Z,26.55
2022-12-07T15:20:00.042Z,17.88
2022-12-07T15:22:36.573Z,19.85
2022-12-07T15:25:07.825Z,22.75
2022-12-07T15:27:36.701Z,14.80
2022-12-07T15:30:06.400Z,27.38
2022-12-07T15:32:35.310Z,18.50
2022-12-07T15:35:04.442Z,30.85
2022-12-07T15:37:34.550Z,19.15
2022-12-07T15:40:07.705Z,23.05
2022-12-07T15:42:37.650Z,26.30
2022-12-07T15:45:08.040Z,29.70
2022-12-07T15:50:27.616Z,30.05
2022-12-07T15:52:57.386Z,22.40
2022-12-07T15:57:55.069Z,22.10
2022-12-07T16:00:24.057Z,26.13
2022-12-07T16:02:52.792Z,24.83
2022-12-07T16:05:21.632Z,24.05
2022-12-07T16:07:50.139Z,16.70
2022-12-07T16:10:20.336Z,26.60
2022-12-07T16:15:21.477Z,28.42
2022-12-07T16:17:53.398Z,28.73
2022-12-07T16:20:22.103Z,15.27
2022-12-07T16:22:53.755Z,25.48
2022-12-07T16:25:23.945Z,21.15
2022-12-07T16:27:53.642Z,22.80
2022-12-07T16:30:22.523Z,28.23
2022-12-07T16:32:51.463Z,25.58
2022-12-07T16:35:20.101Z,18.52
2022-12-07T16:37:48.361Z,20.92
2022-12-07T16:40:17.219Z,29.35
2022-12-07T16:42:47.262Z,29.30
2022-12-07T16:45:19.492Z,28.35
2022-12-07T16:47:49.643Z,24.25
2022-12-07T16:50:18.479Z,28.08
2022-12-07T16:52:46.796Z,30.33
2022-12-07T16:55:16.359Z,27.95
2022-12-07T16:57:46.397Z,27.83
2022-12-07T17:00:24.203Z,24.08
2022-12-07T17:03:03.089Z,25.48
2022-12-07T17:05:45.030Z,23.45
2022-12-07T17:08:26.301Z,26.08
2022-12-07T17:10:57.538Z,29.83
2022-12-07T17:13:45.180Z,27.03
2022-12-07T17:16:14.108Z,29.38
2022-12-07T17:18:42.853Z,32.35
2022-12-07T17:21:11.967Z,26.58
2022-12-07T17:23:41.228Z,28.48
2022-12-07T17:26:11.666Z,26.23
2022-12-07T17:28:41.840Z,27.88
2022-12-07T17:31:12.447Z,26.25
2022-12-07T17:33:41.326Z,26.90
2022-12-07T17:36:14.166Z,26.45
2022-12-07T17:38:43.434Z,25.63
2022-12-07T17:41:13.241Z,22.42
2022-12-07T17:43:43.008Z,19.60
2022-12-07T17:46:11.825Z,27.05
2022-12-07T17:48:40.728Z,21.30
2022-12-07T17:51:26.588Z,23.33
2022-12-07T17:53:55.271Z,28.92
2022-12-07T17:56:28.998Z,27.15
2022-12-07T17:58:59.384Z,26.77
2022-12-07T18:01:34.256Z,22.70
2022-12-07T18:04:04.159Z,27.27
2022-12-07T18:06:33.137Z,29.13
2022-12-07T18:09:01.913Z,27.52
2022-12-07T18:11:30.610Z,23.15
2022-12-07T18:14:00.944Z,24.35
2022-12-07T18:16:31.199Z,25.92
2022-12-07T18:19:01.084Z,27.27
2022-12-07T18:21:31.162Z,29.65
2022-12-07T18:24:02.439Z,24.05
2022-12-07T18:26:32.898Z,24.27
2022-12-07T18:29:03.313Z,27.35
2022-12-07T18:31:31.688Z,25.52
2022-12-07T18:34:03.027Z,22.58
2022-12-07T18:36:32.306Z,24.88
2022-12-07T18:39:00.992Z,15.88
2022-12-07T18:41:29.819Z,26.65
2022-12-07T18:43:58.496Z,25.50
2022-12-07T18:46:28.463Z,27.63
2022-12-07T18:48:58.262Z,21.55
2022-12-07T18:54:02.417Z,19.73
2022-12-07T18:56:31.442Z,14.88
2022-12-07T18:59:18.866Z,14.88
2022-12-07T19:01:52.022Z,18.83
2022-12-07T19:04:21.036Z,16.67
2022-12-07T19:06:50.853Z,16.42
2022-12-07T19:09:20.429Z,17.83
2022-12-07T19:11:52.710Z,14.63
2022-12-07T19:14:24.874Z,15.93
2022-12-07T19:16:56.759Z,19.80
2022-12-07T19:19:31.266Z,17.60
2022-12-07T19:22:00.188Z,20.17
2022-12-07T19:24:29.003Z,23.88
2022-12-07T19:26:58.204Z,24.27
2022-12-07T19:29:28.286Z,19.75
2022-12-07T19:31:58.258Z,16.92
2022-12-07T19:36:55.566Z,22.13
2022-12-07T19:39:24.624Z,15.85
2022-12-07T19:41:53.418Z,16.70
2022-12-07T19:44:25.502Z,19.73
2022-12-07T19:47:00.951Z,20.02
2022-12-07T19:49:35.767Z,17.98
2022-12-07T19:52:05.835Z,18.23
2022-12-07T19:54:35.774Z,14.20
2022-12-07T19:57:05.792Z,15.05
2022-12-07T19:59:35.049Z,22.27
2022-12-07T20:02:03.909Z,18.23
2022-12-07T20:04:35.825Z,16.60
2022-12-07T20:07:04.695Z,16.42
2022-12-07T20:09:33.645Z,19.67
2022-12-07T20:12:20.378Z,16.00
2022-12-07T20:14:49.256Z,14.10
2022-12-07T20:17:18.257Z,16.85
2022-12-07T20:19:47.979Z,18.27
2022-12-07T20:22:16.865Z,16.08
2022-12-07T20:24:45.566Z,18.08
2022-12-07T20:27:14.833Z,16.77
2022-12-07T20:29:43.496Z,13.93
2022-12-07T20:32:13.393Z,14.38
2022-12-07T20:34:42.126Z,21.77
2022-12-07T20:37:12.247Z,13.73
2022-12-07T20:39:41.128Z,15.23
2022-12-07T20:42:27.975Z,14.95
2022-12-07T20:45:01.295Z,15.85
2022-12-07T20:47:33.166Z,12.25
2022-12-07T20:50:01.899Z,13.45
2022-12-07T20:52:32.415Z,11.35
2022-12-07T20:55:01.257Z,15.68
2022-12-07T20:57:30.713Z,13.48
2022-12-07T20:59:59.314Z,17.25
2022-12-07T21:02:28.528Z,17.85
2022-12-07T21:04:56.987Z,15.77
2022-12-07T21:07:25.825Z,17.38
2022-12-07T21:09:55.836Z,16.10
2022-12-07T21:12:24.572Z,12.02
2022-12-07T21:14:53.328Z,16.77
2022-12-07T21:17:22.141Z,17.20
2022-12-07T21:19:50.606Z,15.65
2022-12-07T21:22:19.517Z,16.30
2022-12-07T21:24:48.296Z,17.60
2022-12-07T21:27:18.443Z,13.43
2022-12-07T21:29:52.501Z,19.42
2022-12-07T21:32:23.129Z,13.75
2022-12-07T21:34:51.700Z,16.77
2022-12-07T21:37:20.381Z,11.90
2022-12-07T21:39:49.167Z,13.57
2022-12-07T21:42:19.336Z,14.00
2022-12-07T21:47:16.548Z,13.93
2022-12-07T21:49:44.858Z,21.55
2022-12-07T21:52:13.662Z,13.57
2022-12-07T21:54:44.780Z,13.45
2022-12-07T21:57:13.626Z,14.00
2022-12-07T21:59:43.873Z,12.88
2022-12-07T22:04:42.225Z,9.50
2022-12-07T22:07:11.036Z,10.45
2022-12-07T22:09:39.750Z,11.02
2022-12-07T22:12:08.996Z,13.18
2022-12-07T22:14:55.013Z,10.17
2022-12-07T22:17:25.211Z,8.90
2022-12-07T22:19:53.684Z,15.32
2022-12-07T22:22:22.372Z,16.85
2022-12-07T22:24:51.110Z,19.85
2022-12-07T22:27:19.788Z,14.15
2022-12-07T22:29:48.447Z,21.85
2022-12-07T22:32:47.387Z,19.10
2022-12-07T22:35:07.377Z,11.70
2022-12-07T22:37:36.045Z,13.48
2022-12-07T22:40:05.561Z,22.15
2022-12-07T22:42:34.333Z,15.60
2022-12-07T22:45:03.487Z,15.18
2022-12-07T22:47:32.682Z,14.63
2022-12-07T22:50:01.384Z,15.05
2022-12-07T22:52:31.186Z,15.55
2022-12-07T22:57:30.914Z,12.52
2022-12-07T22:59:59.918Z,17.67
2022-12-07T23:02:28.649Z,14.27
2022-12-07T23:04:57.378Z,12.45
2022-12-07T23:07:25.736Z,13.25
2022-12-07T23:09:55.934Z,11.57
2022-12-07T23:12:42.313Z,11.45
2022-12-07T23:15:12.251Z,17.80
2022-12-07T23:17:40.913Z,12.57
2022-12-07T23:20:10.229Z,14.35
2022-12-07T23:22:38.519Z,13.52
2022-12-07T23:25:09.649Z,15.15
2022-12-07T23:27:38.298Z,13.90
2022-12-07T23:30:08.280Z,14.88
2022-12-07T23:32:36.952Z,12.93
2022-12-07T23:35:06.319Z,16.98
2022-12-07T23:37:34.938Z,10.88
2022-12-07T23:40:04.861Z,16.50
2022-12-07T23:42:35.799Z,16.67
2022-12-07T23:45:04.705Z,8.02
2022-12-07T23:47:33.649Z,12.90
2022-12-07T23:50:04.320Z,10.13
2022-12-07T23:55:01.186Z,8.70
2022-12-07T23:57:30.394Z,6.72
